sensor_id;sensor_type;location;lat;lon;timestamp;temperature;humidity
51615;DHT22;37695;52.960;6.188;2022-10-16T00:01:22;12.60;99.90
51615;DHT22;37695;52.960;6.188;2022-10-16T00:03:48;12.60;99.90
51615;DHT22;37695;52.960;6.188;2022-10-16T00:06:15;12.60;99.90
51615;DHT22;37695;52.960;6.188;2022-10-16T00:08:42;12.60;99.90
51615;DHT22;37695;52.960;6.188;2022-10-16T00:11:14;12.60;99.90
51615;DHT22;37695;52.960;6.188;2022-10-16T00:13:42;12.60;99.90
51615;DHT22;37695;52.960;6.188;2022-10-16T00:16:09;12.60;99.90
51615;DHT22;37695;52.960;6.188;2022-10-16T00:18:35;12.60;99.90
51615;DHT22;37695;52.960;6.188;2022-10-16T00:21:10;12.60;99.90
51615;DHT22;37695;52.960;6.188;2022-10-16T00:23:36;12.60;99.90
51615;DHT22;37695;52.960;6.188;2022-10-16T00:26:08;12.70;99.90
51615;DHT22;37695;52.960;6.188;2022-10-16T00:28:35;12.70;99.90
51615;DHT22;37695;52.960;6.188;2022-10-16T00:31:06;12.70;99.90
51615;DHT22;37695;52.960;6.188;2022-10-16T00:33:32;12.80;99.90
51615;DHT22;37695;52.960;6.188;2022-10-16T00:35:59;12.80;99.90
51615;DHT22;37695;52.960;6.188;2022-10-16T00:38:25;12.80;99.90
51615;DHT22;37695;52.960;6.188;2022-10-16T00:40:50;12.80;99.90
51615;DHT22;37695;52.960;6.188;2022-10-16T00:43:44;12.80;99.90
51615;DHT22;37695;52.960;6.188;2022-10-16T00:46:39;12.80;99.90
51615;DHT22;37695;52.960;6.188;2022-10-16T00:51:34;12.80;99.90
51615;DHT22;37695;52.960;6.188;2022-10-16T00:54:06;12.80;99.90
51615;DHT22;37695;52.960;6.188;2022-10-16T00:56:33;12.80;99.90
51615;DHT22;37695;52.960;6.188;2022-10-16T00:59:01;12.80;99.90
51615;DHT22;37695;52.960;6.188;2022-10-16T01:01:28;12.80;99.90
51615;DHT22;37695;52.960;6.188;2022-10-16T01:03:54;12.80;99.90
51615;DHT22;37695;52.960;6.188;2022-10-16T01:09:32;12.90;99.90
51615;DHT22;37695;52.960;6.188;2022-10-16T01:17:15;12.90;99.90
51615;DHT22;37695;52.960;6.188;2022-10-16T01:19:52;13.00;99.90
51615;DHT22;37695;52.960;6.188;2022-10-16T01:22:20;13.00;99.90
51615;DHT22;37695;52.960;6.188;2022-10-16T01:24:49;13.00;99.90
51615;DHT22;37695;52.960;6.188;2022-10-16T01:27:21;12.90;99.90
51615;DHT22;37695;52.960;6.188;2022-10-16T01:30:10;13.00;99.90
51615;DHT22;37695;52.960;6.188;2022-10-16T01:32:50;13.00;99.90
51615;DHT22;37695;52.960;6.188;2022-10-16T01:35:26;12.90;99.90
51615;DHT22;37695;52.960;6.188;2022-10-16T01:40:39;12.90;99.90
51615;DHT22;37695;52.960;6.188;2022-10-16T01:43:11;12.90;99.90
51615;DHT22;37695;52.960;6.188;2022-10-16T01:45:38;12.90;99.90
51615;DHT22;37695;52.960;6.188;2022-10-16T01:48:06;12.90;99.90
51615;DHT22;37695;52.960;6.188;2022-10-16T01:50:37;12.90;99.90
51615;DHT22;37695;52.960;6.188;2022-10-16T01:53:05;12.90;99.90
51615;DHT22;37695;52.960;6.188;2022-10-16T01:55:33;12.90;99.90
51615;DHT22;37695;52.960;6.188;2022-10-16T01:58:02;12.90;99.90
51615;DHT22;37695;52.960;6.188;2022-10-16T02:00:30;12.90;99.90
51615;DHT22;37695;52.960;6.188;2022-10-16T02:02:57;12.90;99.90
51615;DHT22;37695;52.960;6.188;2022-10-16T02:06:02;12.90;99.90
51615;DHT22;37695;52.960;6.188;2022-10-16T02:08:29;12.90;99.90
51615;DHT22;37695;52.960;6.188;2022-10-16T02:10:57;12.90;99.90
51615;DHT22;37695;52.960;6.188;2022-10-16T02:13:28;12.90;99.90
51615;DHT22;37695;52.960;6.188;2022-10-16T02:15:55;12.90;99.90
51615;DHT22;37695;52.960;6.188;2022-10-16T02:18:21;13.00;99.90
51615;DHT22;37695;52.960;6.188;2022-10-16T02:21:05;12.90;99.90
51615;DHT22;37695;52.960;6.188;2022-10-16T02:26:31;12.90;99.90
51615;DHT22;37695;52.960;6.188;2022-10-16T02:29:02;12.90;99.90
51615;DHT22;37695;52.960;6.188;2022-10-16T02:31:33;13.00;99.90
51615;DHT22;37695;52.960;6.188;2022-10-16T02:34:03;13.00;99.90
51615;DHT22;37695;52.960;6.188;2022-10-16T02:36:30;13.00;99.90
51615;DHT22;37695;52.960;6.188;2022-10-16T02:38:56;13.00;99.90
51615;DHT22;37695;52.960;6.188;2022-10-16T02:41:23;13.00;99.90
51615;DHT22;37695;52.960;6.188;2022-10-16T02:43:49;13.00;99.90
51615;DHT22;37695;52.960;6.188;2022-10-16T02:46:15;13.00;99.90
51615;DHT22;37695;52.960;6.188;2022-10-16T02:48:40;13.00;99.90
51615;DHT22;37695;52.960;6.188;2022-10-16T02:51:06;13.00;99.90
51615;DHT22;37695;52.960;6.188;2022-10-16T02:53:31;13.00;99.90
51615;DHT22;37695;52.960;6.188;2022-10-16T02:55:57;13.00;99.90
51615;DHT22;37695;52.960;6.188;2022-10-16T02:58:22;13.00;99.90
51615;DHT22;37695;52.960;6.188;2022-10-16T03:00:48;13.00;99.90
51615;DHT22;37695;52.960;6.188;2022-10-16T03:03:13;13.00;99.90
51615;DHT22;37695;52.960;6.188;2022-10-16T03:05:39;13.00;99.90
51615;DHT22;37695;52.960;6.188;2022-10-16T03:08:05;13.00;99.90
51615;DHT22;37695;52.960;6.188;2022-10-16T03:10:31;13.00;99.90
51615;DHT22;37695;52.960;6.188;2022-10-16T03:12:56;13.00;99.90
51615;DHT22;37695;52.960;6.188;2022-10-16T03:15:22;13.00;99.90
51615;DHT22;37695;52.960;6.188;2022-10-16T03:17:47;13.00;99.90
51615;DHT22;37695;52.960;6.188;2022-10-16T03:20:13;12.90;99.90
51615;DHT22;37695;52.960;6.188;2022-10-16T03:22:39;12.90;99.90
51615;DHT22;37695;52.960;6.188;2022-10-16T03:25:05;12.90;99.90
51615;DHT22;37695;52.960;6.188;2022-10-16T03:27:30;12.90;99.90
51615;DHT22;37695;52.960;6.188;2022-10-16T03:29:56;12.90;99.90
51615;DHT22;37695;52.960;6.188;2022-10-16T03:32:21;12.90;99.90
51615;DHT22;37695;52.960;6.188;2022-10-16T03:34:47;12.90;99.90
51615;DHT22;37695;52.960;6.188;2022-10-16T03:37:13;12.90;99.90
51615;DHT22;37695;52.960;6.188;2022-10-16T03:39:38;12.90;99.90
51615;DHT22;37695;52.960;6.188;2022-10-16T03:42:04;12.90;99.90
51615;DHT22;37695;52.960;6.188;2022-10-16T03:44:29;12.90;99.90
51615;DHT22;37695;52.960;6.188;2022-10-16T03:46:55;12.90;99.90
51615;DHT22;37695;52.960;6.188;2022-10-16T03:49:20;13.00;99.90
51615;DHT22;37695;52.960;6.188;2022-10-16T03:51:46;12.90;99.90
51615;DHT22;37695;52.960;6.188;2022-10-16T03:54:11;12.90;99.90
51615;DHT22;37695;52.960;6.188;2022-10-16T03:56:37;12.90;99.90
51615;DHT22;37695;52.960;6.188;2022-10-16T03:59:03;12.90;99.90
51615;DHT22;37695;52.960;6.188;2022-10-16T04:01:29;12.90;99.90
51615;DHT22;37695;52.960;6.188;2022-10-16T04:03:54;12.90;99.90
51615;DHT22;37695;52.960;6.188;2022-10-16T04:06:20;12.90;99.90
51615;DHT22;37695;52.960;6.188;2022-10-16T04:08:45;12.80;99.90
51615;DHT22;37695;52.960;6.188;2022-10-16T04:11:11;12.90;99.90
51615;DHT22;37695;52.960;6.188;2022-10-16T04:13:37;12.80;99.90
51615;DHT22;37695;52.960;6.188;2022-10-16T04:16:03;12.80;99.90
51615;DHT22;37695;52.960;6.188;2022-10-16T04:18:28;12.80;99.90
51615;DHT22;37695;52.960;6.188;2022-10-16T04:20:54;12.80;99.90
51615;DHT22;37695;52.960;6.188;2022-10-16T04:23:20;12.80;99.90
51615;DHT22;37695;52.960;6.188;2022-10-16T04:25:45;12.80;99.90
51615;DHT22;37695;52.960;6.188;2022-10-16T04:28:11;12.80;99.90
51615;DHT22;37695;52.960;6.188;2022-10-16T04:30:38;12.80;99.90
51615;DHT22;37695;52.960;6.188;2022-10-16T04:33:04;12.90;99.90
51615;DHT22;37695;52.960;6.188;2022-10-16T04:35:30;12.90;99.90
51615;DHT22;37695;52.960;6.188;2022-10-16T04:37:57;12.90;99.90
51615;DHT22;37695;52.960;6.188;2022-10-16T04:40:23;13.00;99.90
51615;DHT22;37695;52.960;6.188;2022-10-16T04:42:48;13.00;99.90
51615;DHT22;37695;52.960;6.188;2022-10-16T04:45:14;13.00;99.90
51615;DHT22;37695;52.960;6.188;2022-10-16T04:47:39;13.00;99.90
51615;DHT22;37695;52.960;6.188;2022-10-16T04:50:06;13.00;99.90
51615;DHT22;37695;52.960;6.188;2022-10-16T04:52:32;13.00;99.90
51615;DHT22;37695;52.960;6.188;2022-10-16T04:54:58;13.00;99.90
51615;DHT22;37695;52.960;6.188;2022-10-16T04:57:27;13.00;99.90
51615;DHT22;37695;52.960;6.188;2022-10-16T04:59:52;13.00;99.90
51615;DHT22;37695;52.960;6.188;2022-10-16T05:02:18;13.00;99.90
51615;DHT22;37695;52.960;6.188;2022-10-16T05:04:44;13.00;99.90
51615;DHT22;37695;52.960;6.188;2022-10-16T05:07:09;13.00;99.90
51615;DHT22;37695;52.960;6.188;2022-10-16T05:09:35;13.00;99.90
51615;DHT22;37695;52.960;6.188;2022-10-16T05:12:00;13.00;99.90
51615;DHT22;37695;52.960;6.188;2022-10-16T05:14:26;13.00;99.90
51615;DHT22;37695;52.960;6.188;2022-10-16T05:16:51;13.10;99.90
51615;DHT22;37695;52.960;6.188;2022-10-16T05:19:17;13.10;99.90
51615;DHT22;37695;52.960;6.188;2022-10-16T05:21:42;13.10;99.90
51615;DHT22;37695;52.960;6.188;2022-10-16T05:24:08;13.10;99.90
51615;DHT22;37695;52.960;6.188;2022-10-16T05:26:34;13.10;99.90
51615;DHT22;37695;52.960;6.188;2022-10-16T05:29:00;13.10;99.90
51615;DHT22;37695;52.960;6.188;2022-10-16T05:31:26;13.10;99.90
51615;DHT22;37695;52.960;6.188;2022-10-16T05:33:51;13.10;99.90
51615;DHT22;37695;52.960;6.188;2022-10-16T05:36:17;13.10;99.90
51615;DHT22;37695;52.960;6.188;2022-10-16T05:38:43;13.10;99.90
51615;DHT22;37695;52.960;6.188;2022-10-16T05:41:09;13.10;99.90
51615;DHT22;37695;52.960;6.188;2022-10-16T05:43:35;13.10;99.90
51615;DHT22;37695;52.960;6.188;2022-10-16T05:46:03;13.10;99.90
51615;DHT22;37695;52.960;6.188;2022-10-16T05:48:29;13.10;99.90
51615;DHT22;37695;52.960;6.188;2022-10-16T05:51:03;13.10;99.90
51615;DHT22;37695;52.960;6.188;2022-10-16T05:53:30;13.10;99.90
51615;DHT22;37695;52.960;6.188;2022-10-16T05:55:56;13.10;99.90
51615;DHT22;37695;52.960;6.188;2022-10-16T05:58:22;13.00;99.90
51615;DHT22;37695;52.960;6.188;2022-10-16T06:01:02;13.00;99.90
51615;DHT22;37695;52.960;6.188;2022-10-16T06:03:28;13.10;99.90
51615;DHT22;37695;52.960;6.188;2022-10-16T06:05:54;13.00;99.90
51615;DHT22;37695;52.960;6.188;2022-10-16T06:08:21;13.00;99.90
51615;DHT22;37695;52.960;6.188;2022-10-16T06:10:48;13.00;99.90
51615;DHT22;37695;52.960;6.188;2022-10-16T06:13:14;13.00;99.90
51615;DHT22;37695;52.960;6.188;2022-10-16T06:15:41;13.00;99.90
51615;DHT22;37695;52.960;6.188;2022-10-16T06:18:08;13.00;99.90
51615;DHT22;37695;52.960;6.188;2022-10-16T06:20:34;13.00;99.90
51615;DHT22;37695;52.960;6.188;2022-10-16T06:23:00;13.00;99.90
51615;DHT22;37695;52.960;6.188;2022-10-16T06:25:25;13.00;99.90
51615;DHT22;37695;52.960;6.188;2022-10-16T06:27:51;13.00;99.90
51615;DHT22;37695;52.960;6.188;2022-10-16T06:30:16;13.00;99.90
51615;DHT22;37695;52.960;6.188;2022-10-16T06:32:42;13.00;99.90
51615;DHT22;37695;52.960;6.188;2022-10-16T06:35:07;13.00;99.90
51615;DHT22;37695;52.960;6.188;2022-10-16T06:37:33;13.00;99.90
51615;DHT22;37695;52.960;6.188;2022-10-16T06:39:59;13.00;99.90
51615;DHT22;37695;52.960;6.188;2022-10-16T06:42:25;13.00;99.90
51615;DHT22;37695;52.960;6.188;2022-10-16T06:44:51;13.10;99.90
51615;DHT22;37695;52.960;6.188;2022-10-16T06:47:16;13.10;99.90
51615;DHT22;37695;52.960;6.188;2022-10-16T06:49:42;13.10;99.90
51615;DHT22;37695;52.960;6.188;2022-10-16T06:52:07;13.10;99.90
51615;DHT22;37695;52.960;6.188;2022-10-16T06:54:33;13.20;99.90
51615;DHT22;37695;52.960;6.188;2022-10-16T06:56:59;13.20;99.90
51615;DHT22;37695;52.960;6.188;2022-10-16T06:59:25;13.20;99.90
51615;DHT22;37695;52.960;6.188;2022-10-16T07:01:50;13.20;99.90
51615;DHT22;37695;52.960;6.188;2022-10-16T07:04:16;13.20;99.90
51615;DHT22;37695;52.960;6.188;2022-10-16T07:06:42;13.20;99.90
51615;DHT22;37695;52.960;6.188;2022-10-16T07:09:10;13.20;99.90
51615;DHT22;37695;52.960;6.188;2022-10-16T07:11:39;13.20;99.90
51615;DHT22;37695;52.960;6.188;2022-10-16T07:14:18;13.20;99.90
51615;DHT22;37695;52.960;6.188;2022-10-16T07:16:44;13.20;99.90
51615;DHT22;37695;52.960;6.188;2022-10-16T07:19:10;13.10;99.90
51615;DHT22;37695;52.960;6.188;2022-10-16T07:21:37;13.10;99.90
51615;DHT22;37695;52.960;6.188;2022-10-16T07:24:05;13.00;99.90
51615;DHT22;37695;52.960;6.188;2022-10-16T07:26:34;13.10;99.90
51615;DHT22;37695;52.960;6.188;2022-10-16T07:29:00;13.20;99.90
51615;DHT22;37695;52.960;6.188;2022-10-16T07:31:26;13.20;99.90
51615;DHT22;37695;52.960;6.188;2022-10-16T07:33:52;13.20;99.90
51615;DHT22;37695;52.960;6.188;2022-10-16T07:36:18;13.20;99.90
51615;DHT22;37695;52.960;6.188;2022-10-16T07:38:45;13.30;99.90
51615;DHT22;37695;52.960;6.188;2022-10-16T07:41:16;13.30;99.90
51615;DHT22;37695;52.960;6.188;2022-10-16T07:43:50;13.30;99.90
51615;DHT22;37695;52.960;6.188;2022-10-16T07:46:16;13.40;99.90
51615;DHT22;37695;52.960;6.188;2022-10-16T07:48:43;13.50;99.90
51615;DHT22;37695;52.960;6.188;2022-10-16T07:51:11;13.60;99.90
51615;DHT22;37695;52.960;6.188;2022-10-16T07:53:37;13.60;99.90
51615;DHT22;37695;52.960;6.188;2022-10-16T07:56:07;13.60;99.90
51615;DHT22;37695;52.960;6.188;2022-10-16T07:58:34;13.60;99.90
51615;DHT22;37695;52.960;6.188;2022-10-16T08:01:04;13.70;99.90
51615;DHT22;37695;52.960;6.188;2022-10-16T08:03:30;13.70;99.90
51615;DHT22;37695;52.960;6.188;2022-10-16T08:05:57;13.70;99.90
51615;DHT22;37695;52.960;6.188;2022-10-16T08:08:23;13.70;99.90
51615;DHT22;37695;52.960;6.188;2022-10-16T08:10:49;13.60;99.90
51615;DHT22;37695;52.960;6.188;2022-10-16T08:13:15;13.60;99.90
51615;DHT22;37695;52.960;6.188;2022-10-16T08:15:42;13.70;99.90
51615;DHT22;37695;52.960;6.188;2022-10-16T08:18:08;13.70;99.90
51615;DHT22;37695;52.960;6.188;2022-10-16T08:20:34;13.80;99.90
51615;DHT22;37695;52.960;6.188;2022-10-16T08:23:00;13.90;99.90
51615;DHT22;37695;52.960;6.188;2022-10-16T08:25:26;14.00;99.90
51615;DHT22;37695;52.960;6.188;2022-10-16T08:27:52;14.10;99.90
51615;DHT22;37695;52.960;6.188;2022-10-16T08:30:19;14.20;99.90
51615;DHT22;37695;52.960;6.188;2022-10-16T08:32:45;14.20;99.90
51615;DHT22;37695;52.960;6.188;2022-10-16T08:35:12;14.30;99.90
51615;DHT22;37695;52.960;6.188;2022-10-16T08:37:38;14.20;99.90
51615;DHT22;37695;52.960;6.188;2022-10-16T08:40:06;14.20;99.90
51615;DHT22;37695;52.960;6.188;2022-10-16T08:50:42;14.50;99.90
51615;DHT22;37695;52.960;6.188;2022-10-16T08:53:15;14.60;99.90
51615;DHT22;37695;52.960;6.188;2022-10-16T08:55:46;14.70;99.90
51615;DHT22;37695;52.960;6.188;2022-10-16T08:58:27;14.70;99.90
51615;DHT22;37695;52.960;6.188;2022-10-16T09:00:55;14.80;99.90
51615;DHT22;37695;52.960;6.188;2022-10-16T09:03:40;14.90;99.90
51615;DHT22;37695;52.960;6.188;2022-10-16T09:06:20;14.80;99.90
51615;DHT22;37695;52.960;6.188;2022-10-16T09:09:09;14.90;99.90
51615;DHT22;37695;52.960;6.188;2022-10-16T09:11:48;15.00;99.90
51615;DHT22;37695;52.960;6.188;2022-10-16T09:14:32;15.10;99.90
51615;DHT22;37695;52.960;6.188;2022-10-16T09:17:38;15.10;99.90
51615;DHT22;37695;52.960;6.188;2022-10-16T09:20:49;15.20;99.90
51615;DHT22;37695;52.960;6.188;2022-10-16T09:23:41;15.20;99.90
51615;DHT22;37695;52.960;6.188;2022-10-16T09:26:12;15.30;99.90
51615;DHT22;37695;52.960;6.188;2022-10-16T09:28:38;15.40;99.90
51615;DHT22;37695;52.960;6.188;2022-10-16T09:31:03;15.40;99.90
51615;DHT22;37695;52.960;6.188;2022-10-16T09:33:33;15.40;99.90
51615;DHT22;37695;52.960;6.188;2022-10-16T09:36:03;15.50;99.90
51615;DHT22;37695;52.960;6.188;2022-10-16T09:41:41;15.80;99.90
51615;DHT22;37695;52.960;6.188;2022-10-16T09:43:54;15.80;99.90
51615;DHT22;37695;52.960;6.188;2022-10-16T09:46:29;15.80;99.90
51615;DHT22;37695;52.960;6.188;2022-10-16T09:48:57;15.90;99.90
51615;DHT22;37695;52.960;6.188;2022-10-16T09:51:35;16.00;99.90
51615;DHT22;37695;52.960;6.188;2022-10-16T09:54:12;16.00;99.90
51615;DHT22;37695;52.960;6.188;2022-10-16T09:56:38;16.00;99.90
51615;DHT22;37695;52.960;6.188;2022-10-16T09:59:12;16.00;99.90
51615;DHT22;37695;52.960;6.188;2022-10-16T10:01:40;16.00;99.90
51615;DHT22;37695;52.960;6.188;2022-10-16T10:04:07;16.00;99.90
51615;DHT22;37695;52.960;6.188;2022-10-16T10:06:35;16.00;99.90
51615;DHT22;37695;52.960;6.188;2022-10-16T10:09:25;16.10;99.90
51615;DHT22;37695;52.960;6.188;2022-10-16T10:12:01;16.20;99.90
51615;DHT22;37695;52.960;6.188;2022-10-16T10:14:34;16.20;99.90
51615;DHT22;37695;52.960;6.188;2022-10-16T10:17:11;16.20;99.90
51615;DHT22;37695;52.960;6.188;2022-10-16T10:19:39;16.10;99.90
51615;DHT22;37695;52.960;6.188;2022-10-16T10:22:26;16.20;99.90
51615;DHT22;37695;52.960;6.188;2022-10-16T10:38:12;16.30;99.90
51615;DHT22;37695;52.960;6.188;2022-10-16T10:46:12;16.40;99.90
51615;DHT22;37695;52.960;6.188;2022-10-16T10:48:54;16.30;99.90
51615;DHT22;37695;52.960;6.188;2022-10-16T10:51:56;16.30;99.90
51615;DHT22;37695;52.960;6.188;2022-10-16T10:54:37;16.40;99.90
51615;DHT22;37695;52.960;6.188;2022-10-16T10:57:08;16.40;99.90
51615;DHT22;37695;52.960;6.188;2022-10-16T11:00:06;16.30;99.90
51615;DHT22;37695;52.960;6.188;2022-10-16T11:02:48;16.30;99.90
51615;DHT22;37695;52.960;6.188;2022-10-16T11:08:13;16.30;99.90
51615;DHT22;37695;52.960;6.188;2022-10-16T11:10:46;16.30;99.90
51615;DHT22;37695;52.960;6.188;2022-10-16T11:13:34;16.20;99.90
51615;DHT22;37695;52.960;6.188;2022-10-16T11:16:13;16.10;99.90
51615;DHT22;37695;52.960;6.188;2022-10-16T11:18:59;16.10;99.90
51615;DHT22;37695;52.960;6.188;2022-10-16T11:21:30;16.00;99.90
51615;DHT22;37695;52.960;6.188;2022-10-16T11:24:10;15.90;99.90
51615;DHT22;37695;52.960;6.188;2022-10-16T11:26:41;15.80;99.90
51615;DHT22;37695;52.960;6.188;2022-10-16T11:29:16;15.70;99.90
51615;DHT22;37695;52.960;6.188;2022-10-16T11:31:47;15.70;99.90
51615;DHT22;37695;52.960;6.188;2022-10-16T11:34:27;15.60;99.90
51615;DHT22;37695;52.960;6.188;2022-10-16T11:36:59;15.80;99.90
51615;DHT22;37695;52.960;6.188;2022-10-16T11:39:29;15.90;99.90
51615;DHT22;37695;52.960;6.188;2022-10-16T11:42:16;15.90;99.90
51615;DHT22;37695;52.960;6.188;2022-10-16T11:44:57;15.90;99.90
51615;DHT22;37695;52.960;6.188;2022-10-16T11:47:27;15.90;99.90
51615;DHT22;37695;52.960;6.188;2022-10-16T11:50:23;16.10;99.90
51615;DHT22;37695;52.960;6.188;2022-10-16T11:55:42;16.50;99.90
51615;DHT22;37695;52.960;6.188;2022-10-16T11:58:27;16.40;99.90
51615;DHT22;37695;52.960;6.188;2022-10-16T12:00:56;16.40;99.90
51615;DHT22;37695;52.960;6.188;2022-10-16T12:03:48;16.40;99.90
51615;DHT22;37695;52.960;6.188;2022-10-16T12:06:30;16.40;99.90
51615;DHT22;37695;52.960;6.188;2022-10-16T12:08:59;16.40;99.90
51615;DHT22;37695;52.960;6.188;2022-10-16T12:16:58;16.30;99.90
51615;DHT22;37695;52.960;6.188;2022-10-16T12:19:26;16.40;99.90
51615;DHT22;37695;52.960;6.188;2022-10-16T12:21:55;16.60;99.90
51615;DHT22;37695;52.960;6.188;2022-10-16T12:24:27;16.70;99.90
51615;DHT22;37695;52.960;6.188;2022-10-16T12:26:55;16.80;99.90
51615;DHT22;37695;52.960;6.188;2022-10-16T12:29:38;16.90;99.90
51615;DHT22;37695;52.960;6.188;2022-10-16T12:32:29;16.90;99.90
51615;DHT22;37695;52.960;6.188;2022-10-16T12:34:55;16.90;99.90
51615;DHT22;37695;52.960;6.188;2022-10-16T12:37:34;16.80;99.90
51615;DHT22;37695;52.960;6.188;2022-10-16T12:40:12;16.70;99.90
51615;DHT22;37695;52.960;6.188;2022-10-16T12:42:39;16.60;99.90
51615;DHT22;37695;52.960;6.188;2022-10-16T12:45:29;16.70;99.90
51615;DHT22;37695;52.960;6.188;2022-10-16T12:47:55;16.80;99.90
51615;DHT22;37695;52.960;6.188;2022-10-16T12:52:57;17.00;99.90
51615;DHT22;37695;52.960;6.188;2022-10-16T12:55:23;17.10;99.90
51615;DHT22;37695;52.960;6.188;2022-10-16T12:58:06;17.10;99.90
51615;DHT22;37695;52.960;6.188;2022-10-16T13:00:54;17.10;99.90
51615;DHT22;37695;52.960;6.188;2022-10-16T13:03:53;17.20;99.90
51615;DHT22;37695;52.960;6.188;2022-10-16T13:09:19;17.20;99.90
51615;DHT22;37695;52.960;6.188;2022-10-16T13:12:07;17.20;99.90
51615;DHT22;37695;52.960;6.188;2022-10-16T13:14:58;17.10;99.90
51615;DHT22;37695;52.960;6.188;2022-10-16T13:17:44;17.00;99.90
51615;DHT22;37695;52.960;6.188;2022-10-16T13:20:28;16.90;99.90
51615;DHT22;37695;52.960;6.188;2022-10-16T13:23:33;16.90;99.90
51615;DHT22;37695;52.960;6.188;2022-10-16T13:28:30;16.80;99.90
51615;DHT22;37695;52.960;6.188;2022-10-16T13:30:58;16.80;99.90
51615;DHT22;37695;52.960;6.188;2022-10-16T13:36:02;16.80;99.90
51615;DHT22;37695;52.960;6.188;2022-10-16T13:38:31;16.80;99.90
51615;DHT22;37695;52.960;6.188;2022-10-16T13:41:06;16.70;99.90
51615;DHT22;37695;52.960;6.188;2022-10-16T13:43:50;16.70;99.90
51615;DHT22;37695;52.960;6.188;2022-10-16T13:46:17;16.70;99.90
51615;DHT22;37695;52.960;6.188;2022-10-16T13:48:44;16.60;99.90
51615;DHT22;37695;52.960;6.188;2022-10-16T13:51:16;16.60;99.90
51615;DHT22;37695;52.960;6.188;2022-10-16T13:53:43;16.50;99.90
51615;DHT22;37695;52.960;6.188;2022-10-16T13:56:17;16.50;99.90
51615;DHT22;37695;52.960;6.188;2022-10-16T13:58:43;16.50;99.90
51615;DHT22;37695;52.960;6.188;2022-10-16T14:01:19;16.40;99.90
51615;DHT22;37695;52.960;6.188;2022-10-16T14:03:46;16.40;99.90
51615;DHT22;37695;52.960;6.188;2022-10-16T14:06:15;16.40;99.90
51615;DHT22;37695;52.960;6.188;2022-10-16T14:08:44;16.40;99.90
51615;DHT22;37695;52.960;6.188;2022-10-16T14:11:11;16.40;99.90
51615;DHT22;37695;52.960;6.188;2022-10-16T14:13:40;16.40;99.90
51615;DHT22;37695;52.960;6.188;2022-10-16T14:16:17;16.50;99.90
51615;DHT22;37695;52.960;6.188;2022-10-16T14:18:46;16.50;99.90
51615;DHT22;37695;52.960;6.188;2022-10-16T14:21:15;16.40;99.90
51615;DHT22;37695;52.960;6.188;2022-10-16T14:23:42;16.40;99.90
51615;DHT22;37695;52.960;6.188;2022-10-16T14:28:34;16.20;99.90
51615;DHT22;37695;52.960;6.188;2022-10-16T14:31:02;16.10;99.90
51615;DHT22;37695;52.960;6.188;2022-10-16T14:33:33;16.10;99.90
51615;DHT22;37695;52.960;6.188;2022-10-16T14:38:33;16.10;99.90
51615;DHT22;37695;52.960;6.188;2022-10-16T14:41:00;16.00;99.90
51615;DHT22;37695;52.960;6.188;2022-10-16T14:45:56;16.00;99.90
51615;DHT22;37695;52.960;6.188;2022-10-16T14:48:22;15.90;99.90
51615;DHT22;37695;52.960;6.188;2022-10-16T14:50:48;15.90;99.90
51615;DHT22;37695;52.960;6.188;2022-10-16T14:53:14;15.90;99.90
51615;DHT22;37695;52.960;6.188;2022-10-16T14:55:40;15.80;99.90
51615;DHT22;37695;52.960;6.188;2022-10-16T14:58:17;15.80;99.90
51615;DHT22;37695;52.960;6.188;2022-10-16T15:00:44;15.80;99.90
51615;DHT22;37695;52.960;6.188;2022-10-16T15:03:09;15.80;99.90
51615;DHT22;37695;52.960;6.188;2022-10-16T15:05:35;15.80;99.90
51615;DHT22;37695;52.960;6.188;2022-10-16T15:08:01;15.80;99.90
51615;DHT22;37695;52.960;6.188;2022-10-16T15:10:27;15.70;99.90
51615;DHT22;37695;52.960;6.188;2022-10-16T15:12:54;15.70;99.90
51615;DHT22;37695;52.960;6.188;2022-10-16T15:17:49;15.70;99.90
51615;DHT22;37695;52.960;6.188;2022-10-16T15:20:18;15.70;99.90
51615;DHT22;37695;52.960;6.188;2022-10-16T15:22:43;15.60;99.90
51615;DHT22;37695;52.960;6.188;2022-10-16T15:25:39;15.70;99.90
51615;DHT22;37695;52.960;6.188;2022-10-16T15:28:07;15.70;99.90
51615;DHT22;37695;52.960;6.188;2022-10-16T15:30:33;15.60;99.90
51615;DHT22;37695;52.960;6.188;2022-10-16T15:32:59;15.60;99.90
51615;DHT22;37695;52.960;6.188;2022-10-16T15:35:25;15.60;99.90
51615;DHT22;37695;52.960;6.188;2022-10-16T15:37:51;15.50;99.90
51615;DHT22;37695;52.960;6.188;2022-10-16T15:40:18;15.50;99.90
51615;DHT22;37695;52.960;6.188;2022-10-16T15:42:44;15.50;99.90
51615;DHT22;37695;52.960;6.188;2022-10-16T15:45:11;15.40;99.90
51615;DHT22;37695;52.960;6.188;2022-10-16T15:47:36;15.40;99.90
51615;DHT22;37695;52.960;6.188;2022-10-16T15:50:03;15.20;99.90
51615;DHT22;37695;52.960;6.188;2022-10-16T15:52:29;15.20;99.90
51615;DHT22;37695;52.960;6.188;2022-10-16T15:54:57;15.10;99.90
51615;DHT22;37695;52.960;6.188;2022-10-16T15:57:23;15.00;99.90
51615;DHT22;37695;52.960;6.188;2022-10-16T15:59:49;14.90;99.90
51615;DHT22;37695;52.960;6.188;2022-10-16T16:02:15;14.80;99.90
51615;DHT22;37695;52.960;6.188;2022-10-16T16:04:40;14.80;99.90
51615;DHT22;37695;52.960;6.188;2022-10-16T16:07:06;14.80;99.90
51615;DHT22;37695;52.960;6.188;2022-10-16T16:09:33;14.70;99.90
51615;DHT22;37695;52.960;6.188;2022-10-16T16:11:58;14.60;99.90
51615;DHT22;37695;52.960;6.188;2022-10-16T16:14:26;14.60;99.90
51615;DHT22;37695;52.960;6.188;2022-10-16T16:16:54;14.60;99.90
51615;DHT22;37695;52.960;6.188;2022-10-16T16:19:19;14.50;99.90
51615;DHT22;37695;52.960;6.188;2022-10-16T16:21:46;14.50;99.90
51615;DHT22;37695;52.960;6.188;2022-10-16T16:24:12;14.50;99.90
51615;DHT22;37695;52.960;6.188;2022-10-16T16:26:37;14.40;99.90
51615;DHT22;37695;52.960;6.188;2022-10-16T16:29:05;14.30;99.90
51615;DHT22;37695;52.960;6.188;2022-10-16T16:31:32;14.30;99.90
51615;DHT22;37695;52.960;6.188;2022-10-16T16:33:58;14.20;99.90
51615;DHT22;37695;52.960;6.188;2022-10-16T16:36:24;14.10;99.90
51615;DHT22;37695;52.960;6.188;2022-10-16T16:38:50;14.00;99.90
51615;DHT22;37695;52.960;6.188;2022-10-16T16:41:18;13.90;99.90
51615;DHT22;37695;52.960;6.188;2022-10-16T16:43:45;13.80;99.90
51615;DHT22;37695;52.960;6.188;2022-10-16T16:46:11;13.70;99.90
51615;DHT22;37695;52.960;6.188;2022-10-16T16:48:37;13.60;99.90
51615;DHT22;37695;52.960;6.188;2022-10-16T16:51:08;13.60;99.90
51615;DHT22;37695;52.960;6.188;2022-10-16T16:53:37;13.50;99.90
51615;DHT22;37695;52.960;6.188;2022-10-16T16:56:06;13.50;99.90
51615;DHT22;37695;52.960;6.188;2022-10-16T16:58:32;13.40;99.90
51615;DHT22;37695;52.960;6.188;2022-10-16T17:00:59;13.30;99.90
51615;DHT22;37695;52.960;6.188;2022-10-16T17:03:29;13.30;99.90
51615;DHT22;37695;52.960;6.188;2022-10-16T17:06:03;13.30;99.90